Impacts METAR Board
IDs:

KORD - Chicago/O'Hare Intl, IL, US

Updated at: 0300 UTC 17 Jul 2018
Potential Impact None Slight Moderate High
Time 16/15Z 16/16Z 16/17Z 16/18Z 16/19Z 16/20Z 16/21Z 16/22Z 16/23Z 17/00Z 17/01Z 17/02Z 17/03Z
Temp84 86 88 90 85 79 88 86 88 86 83 79 77
Dewpt72 69 68 68 67 70 69 70 66 61 58 56 57
Altim29.94 29.94 29.93 29.91 29.92 29.92 29.90 29.90 29.90 29.91 29.93 29.95 29.98
VIS10 10 10 10 10 8 10 10 10 10 10 10 10
CIG110 250 250 55 70 65 65 48 46 -- -- -- --
CoverBKNBKNBKNBKNBKNBKNBKNBKNBKNSCTFEWFEWFEW
FltCatVFRVFRVFRVFRVFRVFRVFRVFRVFRVFRVFRVFRVFR
WX-----------RA--------------
WDir026000601304050320340320350340
WSpd5 8 0 6 14 4 5 7 10 14 9 9 7
WGst-- -- -- -- -- -- -- -- -- -- -- -- --
Raw hourly METARs
KORD 161451Z VRB05KT 10SM FEW040 BKN110 BKN250 29/22 A2994 RMK AO2 SLP132 T02890222 53003
KORD 161551Z 26008KT 10SM SCT032TCU SCT110 BKN250 30/21 A2994 RMK AO2 SLP132 TCU NW-N T03000206
KORD 161651Z 00000KT 10SM SCT040 SCT055 SCT100 BKN250 31/20 A2993 RMK AO2 SLP127 CB DSNT NE AND SE T03110200
KORD 161751Z VRB06KT 10SM SCT042CB BKN055 BKN120 BKN250 32/20 A2991 RMK AO2 LTG DSNT NE AND E SLP123 CB N-SE MOV E T03220200 10328 20261 58008
KORD 161902Z 06014KT 10SM FEW036 SCT048CB BKN070 BKN250 29/19 A2992 RMK AO2 WSHFT 1845 CB SE MOV SE T02940194
KORD 161951Z 13004KT 8SM R10L/4000VP6000FT -RA FEW042 BKN065CB BKN100 BKN250 26/21 A2992 RMK AO2 WSHFT 1845 LTG DSNT S RAB42 SLP126 CB SE MOV SE P0002 T02610211 $
KORD 162051Z 04005KT 10SM SCT045 BKN065 BKN100 31/21 A2990 RMK AO2 RAE15 SLP119 CB DSNT SE-S MOV SE P0006 60008 T03110206 58004 $
KORD 162151Z 05007KT 10SM SCT036 BKN048 BKN065 30/21 A2990 RMK AO2 SLP121 T03000211 $
KORD 162251Z 32010KT 10SM SCT034 BKN046 31/19 A2990 RMK AO2 SLP119 T03110189 $
KORD 162351Z 34014KT 10SM FEW034 FEW046 SCT250 30/16 A2991 RMK AO2 SLP122 60008 T03000161 10317 20261 53003 $
KORD 170051Z 32009KT 10SM FEW045 FEW250 28/14 A2993 RMK AO2 SLP127 T02830144 $
KORD 170151Z 35009KT 10SM FEW250 26/13 A2995 RMK AO2 SLP137 T02610133 $
KORD 170251Z 34007KT 10SM FEW250 25/14 A2998 RMK AO2 SLP147 T02500139 53024 $



Page loaded:  03:39 UTC  |   08:39 PM Pacific  |   09:39 PM Mountain  |   10:39 PM Central  |   11:39 PM Eastern

 

ADVISORIES

FORECASTS

FORECASTS

OBSERVATIONS

USER TOOLS

ABOUT US